Time;durP1;ratioP1;P1;durP2;ratioP2;P2;SDS_P1;SDS_P2;PMS_P1;PMS_P2;Temp;Humidity;BMP_temperature;BMP_pressure;BME280_temperature;BME280_humidity;BME280_pressure;Samples;Min_cycle;Max_cycle;Signal;HPM_P1;HPM_P2
2022/09/30 00:02:14;;;;;;;;;;;;;;;26.79;38.79;100252.44;5075866;28;1150;-57
2022/09/30 00:04:39;;;;;;;;;;;;;;;26.81;39.10;100252.22;5076113;28;1170;-57
2022/09/30 00:07:04;;;;;;;;;;;;;;;26.75;39.17;100253.81;5076222;28;1230;-54
2022/09/30 00:09:30;;;;;;;;;;;;;;;26.76;39.19;100258.19;5069275;28;1190;-53
2022/09/30 00:11:55;;;;;;;;;;;;;;;26.76;39.39;100258.19;5067009;28;2443;-52
2022/09/30 00:14:21;;;;;;;;;;;;;;;26.75;39.16;100268.16;5074064;28;1219;-49
2022/09/30 00:16:46;;;;;;;;;;;;;;;26.75;39.12;100275.41;5075875;28;1189;-56
2022/09/30 00:19:11;;;;;;;;;;;;;;;26.76;39.18;100271.66;5075363;28;1162;-56
2022/09/30 00:21:36;;;;;;;;;;;;;;;26.80;39.13;100275.69;5076385;28;1170;-53
2022/09/30 00:24:02;;;;;;;;;;;;;;;26.74;39.12;100269.16;5075113;28;1150;-57
2022/09/30 00:26:28;;;;;;;;;;;;;;;26.84;39.36;100266.16;5075991;28;1122;-53
2022/09/30 00:28:54;;;;;;;;;;;;;;;26.81;39.44;100269.25;5075473;28;1178;-53
2022/09/30 00:31:20;;;;;;;;;;;;;;;26.87;39.17;100276.59;5071662;28;1963;-58
2022/09/30 00:34:05;;;;;;;;;;;;;;;26.85;39.36;100267.84;5065858;28;1182;-52
2022/09/30 00:36:31;;;;;;;;;;;;;;;26.76;39.33;100277.91;5071483;28;1111;-49
2022/09/30 00:38:56;;;;;;;;;;;;;;;26.80;39.39;100275.69;5076026;28;1158;-52
2022/09/30 00:41:22;;;;;;;;;;;;;;;26.78;39.50;100285.81;5075384;28;1091;-55
2022/09/30 00:43:52;;;;;;;;;;;;;;;26.78;39.44;100289.34;5068619;28;2532;-53
2022/09/30 00:46:38;;;;;;;;;;;;;;;26.78;39.42;100281.25;5074484;28;1071;-54
2022/09/30 00:49:06;;;;;;;;;;;;;;;26.78;39.41;100294.75;5056639;28;893;-55
2022/09/30 00:51:35;;;;;;;;;;;;;;;26.75;39.11;100284.34;5041620;28;1941;-50
2022/09/30 00:54:15;;;;;;;;;;;;;;;26.75;39.25;100284.34;5038098;28;1178;-54
2022/09/30 00:56:42;;;;;;;;;;;;;;;26.75;39.23;100288.91;5071902;28;1167;-54
2022/09/30 00:59:09;;;;;;;;;;;;;;;26.73;39.36;100293.66;5075208;28;1166;-56
2022/09/30 01:01:38;;;;;;;;;;;;;;;26.76;39.12;100287.88;5057494;28;1087;-52
2022/09/30 01:04:05;;;;;;;;;;;;;;;26.79;39.32;100290.22;5075639;28;1178;-54
2022/09/30 01:06:30;;;;;;;;;;;;;;;26.76;39.21;100294.09;5075753;28;1138;-51
2022/09/30 01:08:57;;;;;;;;;;;;;;;26.76;38.94;100288.72;5074069;28;1111;-50
2022/09/30 01:11:22;;;;;;;;;;;;;;;26.72;39.57;100294.69;5058432;28;1898;-48
2022/09/30 01:13:48;;;;;;;;;;;;;;;26.76;39.53;100299.50;5073672;28;2633;-51
2022/09/30 01:16:22;;;;;;;;;;;;;;;26.78;39.08;100294.75;5037419;28;1108;-54
2022/09/30 01:19:07;;;;;;;;;;;;;;;26.81;39.13;100284.63;5068608;28;1163;-53
2022/09/30 01:21:49;;;;;;;;;;;;;;;26.80;39.34;100286.47;5062699;28;1092;-54
2022/09/30 01:24:29;;;;;;;;;;;;;;;26.74;39.40;100274.56;5075001;28;1170;-54
2022/09/30 01:27:04;;;;;;;;;;;;;;;26.66;39.53;100288.19;5074533;28;1134;-50
2022/09/30 01:29:38;;;;;;;;;;;;;;;26.75;39.69;100289.75;5057785;28;1158;-49
2022/09/30 01:32:13;;;;;;;;;;;;;;;26.72;39.55;100286.59;5055398;28;1906;-58
2022/09/30 01:34:44;;;;;;;;;;;;;;;26.73;39.54;100285.56;5055195;28;1244;-57
2022/09/30 01:37:19;;;;;;;;;;;;;;;26.73;39.33;100294.50;5071868;28;957;-53
2022/09/30 01:39:44;;;;;;;;;;;;;;;26.75;39.12;100291.59;5057034;28;1162;-50
2022/09/30 01:42:10;;;;;;;;;;;;;;;26.75;39.13;100297.84;5075631;28;2252;-51
2022/09/30 01:45:02;;;;;;;;;;;;;;;26.76;39.03;100286.00;5058424;28;1179;-52
2022/09/30 01:47:46;;;;;;;;;;;;;;;26.80;39.08;100288.31;5042627;28;1172;-52
2022/09/30 01:50:31;;;;;;;;;;;;;;;26.78;39.51;100296.63;5078450;28;1142;-51
2022/09/30 01:53:05;;;;;;;;;;;;;;;26.75;39.33;100303.25;5064343;28;1898;-55
2022/09/30 01:55:32;;;;;;;;;;;;;;;26.76;39.55;100314.84;5041114;28;1202;-53
2022/09/30 01:58:03;;;;;;;;;;;;;;;26.73;39.67;100321.47;5053963;28;1120;-52
2022/09/30 02:00:28;;;;;;;;;;;;;;;26.77;39.30;100313.84;5040553;28;936;-57
2022/09/30 02:03:23;;;;;;;;;;;;;;;26.72;39.67;100317.13;5040558;28;1140;-56
2022/09/30 02:05:56;;;;;;;;;;;;;;;26.77;39.64;100314.69;5048924;28;1103;-54
2022/09/30 02:08:21;;;;;;;;;;;;;;;26.80;39.56;100318.00;5051685;28;1172;-54
2022/09/30 02:10:50;;;;;;;;;;;;;;;26.81;39.49;100315.13;5060874;28;1111;-52
2022/09/30 02:13:17;;;;;;;;;;;;;;;26.83;39.38;100314.91;5043962;28;2347;-52
2022/09/30 02:15:43;;;;;;;;;;;;;;;26.80;39.47;100320.69;5040194;28;1200;-55
2022/09/30 02:18:11;;;;;;;;;;;;;;;26.74;39.55;100323.13;5040503;28;1128;-54
2022/09/30 02:20:38;;;;;;;;;;;;;;;26.78;39.17;100329.84;5057669;28;1127;-57
2022/09/30 02:23:03;;;;;;;;;;;;;;;26.80;39.34;100339.59;5058422;28;1068;-53
2022/09/30 02:25:30;;;;;;;;;;;;;;;26.78;39.57;100348.72;5073759;28;905;-56
2022/09/30 02:27:56;;;;;;;;;;;;;;;26.73;39.66;100345.75;5060172;28;1162;-55
2022/09/30 02:30:22;;;;;;;;;;;;;;;26.74;39.42;100347.41;5039822;28;1108;-50
2022/09/30 02:32:47;;;;;;;;;;;;;;;26.82;39.46;100351.03;5057493;28;1905;-56
2022/09/30 02:35:14;;;;;;;;;;;;;;;26.78;39.35;100353.28;5057630;28;1119;-49
2022/09/30 02:37:40;;;;;;;;;;;;;;;26.79;39.38;100363.06;5074083;28;1130;-50
2022/09/30 02:40:08;;;;;;;;;;;;;;;26.81;39.73;100358.28;5039659;28;1096;-53
2022/09/30 02:42:33;;;;;;;;;;;;;;;26.84;39.39;100357.09;5057328;28;2470;-53
2022/09/30 02:45:03;;;;;;;;;;;;;;;26.86;39.13;100357.75;5040000;28;1136;-55
2022/09/30 02:47:33;;;;;;;;;;;;;;;26.84;39.09;100354.38;5068739;28;1198;-56
2022/09/30 02:50:19;;;;;;;;;;;;;;;26.84;39.08;100346.28;5054947;28;945;-56
2022/09/30 02:53:03;;;;;;;;;;;;;;;26.85;39.30;100356.06;5051518;28;1957;-56
2022/09/30 02:55:30;;;;;;;;;;;;;;;26.86;39.20;100358.56;5057147;28;1040;-57
2022/09/30 02:57:59;;;;;;;;;;;;;;;26.89;39.17;100349.25;5039808;28;1116;-57
2022/09/30 03:00:25;;;;;;;;;;;;;;;26.90;39.35;100359.88;5043882;28;1438;-57
2022/09/30 03:03:04;;;;;;;;;;;;;;;26.81;39.15;100355.59;5077347;28;1209;-56
2022/09/30 03:05:29;;;;;;;;;;;;;;;26.88;39.36;100352.97;5077034;28;1233;-55
2022/09/30 03:07:55;;;;;;;;;;;;;;;26.80;39.28;100356.63;5077305;28;1178;-53
2022/09/30 03:10:20;;;;;;;;;;;;;;;26.83;39.43;100364.34;5049474;28;1155;-55
2022/09/30 03:12:53;;;;;;;;;;;;;;;26.87;39.10;100368.34;5069784;28;2546;-54
2022/09/30 03:15:36;;;;;;;;;;;;;;;26.97;38.85;100367.19;5051921;28;1183;-53
2022/09/30 03:18:04;;;;;;;;;;;;;;;26.86;38.92;100358.56;5039457;28;1065;-55
2022/09/30 03:20:33;;;;;;;;;;;;;;;26.42;40.02;100365.72;5056958;28;1147;-42
2022/09/30 03:23:11;;;;;;;;;;;;;;;25.87;41.35;100365.97;5044766;28;1171;-41
2022/09/30 03:25:45;;;;;;;;;;;;;;;25.53;41.86;100362.72;5076325;28;852;-43
2022/09/30 03:28:15;;;;;;;;;;;;;;;25.27;43.11;100366.63;5056956;28;1127;-41
2022/09/30 03:30:59;;;;;;;;;;;;;;;25.31;42.60;100368.78;5051426;28;1272;-41
2022/09/30 03:33:27;;;;;;;;;;;;;;;25.22;42.92;100372.56;5076703;28;1905;-40
2022/09/30 03:35:59;;;;;;;;;;;;;;;25.15;43.17;100372.44;5043638;28;1158;-40
2022/09/30 03:38:33;;;;;;;;;;;;;;;25.09;43.42;100377.69;5075576;28;1012;-42
2022/09/30 03:41:01;;;;;;;;;;;;;;;24.89;43.77;100375.44;5058673;28;1222;-40
2022/09/30 03:43:35;;;;;;;;;;;;;;;24.81;44.02;100378.97;5063785;28;2525;-42
2022/09/30 03:46:01;;;;;;;;;;;;;;;24.74;44.20;100380.72;5057121;28;1317;-41
2022/09/30 03:48:26;;;;;;;;;;;;;;;24.66;44.54;100385.13;5069590;28;1130;-43
2022/09/30 03:50:52;;;;;;;;;;;;;;;24.15;45.51;100388.97;5038623;28;1140;-42
2022/09/30 03:53:17;;;;;;;;;;;;;;;24.17;45.31;100380.75;5074522;28;1959;-41
2022/09/30 03:55:46;;;;;;;;;;;;;;;23.55;44.47;100271.06;5075464;28;1198;-40
2022/09/30 03:58:12;;;;;;;;;;;;;;;24.46;44.02;100379.31;5076383;28;1158;-42
2022/09/30 04:00:38;;;;;;;;;;;;;;;24.47;44.16;100381.00;5075557;28;1159;-41
2022/09/30 04:03:03;;;;;;;;;;;;;;;24.64;43.92;100380.94;5056843;28;1349;-42
2022/09/30 04:05:28;;;;;;;;;;;;;;;24.63;43.81;100395.38;5075366;28;1237;-46
2022/09/30 04:07:53;;;;;;;;;;;;;;;24.67;43.95;100386.78;5076434;28;1254;-41
2022/09/30 04:10:19;;;;;;;;;;;;;;;24.68;43.80;100393.84;5075424;28;1234;-40
2022/09/30 04:12:44;;;;;;;;;;;;;;;24.75;43.42;100388.63;5072560;28;1961;-41
2022/09/30 04:15:09;;;;;;;;;;;;;;;24.70;43.79;100393.69;5075767;28;1254;-42
2022/09/30 04:17:35;;;;;;;;;;;;;;;24.68;43.61;100401.06;5075501;28;1151;-40
2022/09/30 04:20:00;;;;;;;;;;;;;;;24.73;43.56;100395.16;5075605;28;1297;-41
2022/09/30 04:22:27;;;;;;;;;;;;;;;24.70;43.99;100401.75;5075659;28;1187;-40
2022/09/30 04:24:52;;;;;;;;;;;;;;;24.69;43.93;100403.59;5063711;28;1004;-40
2022/09/30 04:27:17;;;;;;;;;;;;;;;24.70;44.05;100405.28;5074265;28;1175;-43
2022/09/30 04:29:43;;;;;;;;;;;;;;;24.74;43.98;100404.94;5075420;28;1170;-40
2022/09/30 04:32:08;;;;;;;;;;;;;;;24.73;44.19;100406.78;5075244;28;1906;-41
2022/09/30 04:34:33;;;;;;;;;;;;;;;24.68;44.27;100418.06;5075812;28;1242;-40
2022/09/30 04:36:59;;;;;;;;;;;;;;;24.72;44.05;100415.00;5072497;28;1173;-41
2022/09/30 04:39:24;;;;;;;;;;;;;;;24.69;44.30;100414.34;5071732;28;1096;-42
2022/09/30 04:41:52;;;;;;;;;;;;;;;24.73;44.23;100420.22;5075749;28;1682;-40
2022/09/30 04:44:18;;;;;;;;;;;;;;;24.75;44.32;100426.28;5063788;28;2196;-44
2022/09/30 04:46:43;;;;;;;;;;;;;;;24.73;44.24;100439.03;5076046;28;1114;-42
2022/09/30 04:49:08;;;;;;;;;;;;;;;24.77;44.17;100442.22;5071952;28;1150;-41
2022/09/30 04:51:34;;;;;;;;;;;;;;;24.77;44.54;100443.09;5067395;28;1901;-42
2022/09/30 04:54:00;;;;;;;;;;;;;;;24.70;44.84;100453.69;5076218;28;1193;-41
2022/09/30 04:56:25;;;;;;;;;;;;;;;24.70;44.56;100447.47;5068973;28;1215;-40
2022/09/30 04:58:51;;;;;;;;;;;;;;;24.68;44.57;100455.72;5073074;28;1076;-41
2022/09/30 05:01:16;;;;;;;;;;;;;;;24.70;44.73;100455.53;5073350;28;951;-42
2022/09/30 05:03:44;;;;;;;;;;;;;;;24.69;44.64;100459.25;5075632;28;1048;-41
2022/09/30 05:06:10;;;;;;;;;;;;;;;24.67;44.51;100455.88;5060833;28;1111;-41
2022/09/30 05:08:35;;;;;;;;;;;;;;;24.72;44.77;100458.91;5074794;28;1098;-41
2022/09/30 05:11:01;;;;;;;;;;;;;;;24.73;44.58;100457.88;5074707;28;1402;-41
2022/09/30 05:13:33;;;;;;;;;;;;;;;24.79;44.71;100459.88;5068800;28;1926;-42
2022/09/30 05:15:59;;;;;;;;;;;;;;;24.85;44.69;100455.66;5077574;28;1222;-42
2022/09/30 05:18:27;;;;;;;;;;;;;;;24.86;44.64;100453.81;5075348;28;1159;-42
2022/09/30 05:20:52;;;;;;;;;;;;;;;24.88;44.75;100446.38;5075499;28;1376;-43
2022/09/30 05:23:18;;;;;;;;;;;;;;;24.89;44.78;100451.56;5067205;28;1088;-41
2022/09/30 05:25:43;;;;;;;;;;;;;;;24.89;44.51;100454.28;5072762;28;1102;-42
2022/09/30 05:28:08;;;;;;;;;;;;;;;24.85;44.97;100460.19;5068517;28;1087;-42
2022/09/30 05:30:33;;;;;;;;;;;;;;;24.89;45.20;100456.97;5071693;28;1068;-40
2022/09/30 05:32:59;;;;;;;;;;;;;;;24.88;44.95;100457.13;5078080;28;1917;-40
2022/09/30 05:35:24;;;;;;;;;;;;;;;24.93;44.63;100460.19;5074879;28;931;-40
2022/09/30 05:37:49;;;;;;;;;;;;;;;24.99;44.76;100464.03;5074520;28;1138;-39
2022/09/30 05:40:15;;;;;;;;;;;;;;;25.01;44.70;100457.44;5078795;28;1185;-39
2022/09/30 05:42:40;;;;;;;;;;;;;;;25.06;45.14;100456.91;5078146;28;1864;-43
2022/09/30 05:45:06;;;;;;;;;;;;;;;25.19;44.91;100461.75;5077717;28;1099;-41
2022/09/30 05:47:32;;;;;;;;;;;;;;;25.19;44.97;100449.09;5078308;28;1059;-42
2022/09/30 05:49:57;;;;;;;;;;;;;;;25.19;45.00;100453.66;5075752;28;1193;-42
2022/09/30 05:52:22;;;;;;;;;;;;;;;25.31;44.65;100463.00;5077996;28;1906;-41
2022/09/30 05:54:49;;;;;;;;;;;;;;;25.21;45.73;100477.72;5077750;28;1336;-41
2022/09/30 05:57:14;;;;;;;;;;;;;;;25.24;45.54;100480.88;5077555;28;1106;-41
2022/09/30 05:59:39;;;;;;;;;;;;;;;25.22;45.95;100476.69;5077833;28;1075;-40
2022/09/30 06:02:05;;;;;;;;;;;;;;;25.20;46.20;100471.47;5077392;28;903;-42
2022/09/30 06:04:30;;;;;;;;;;;;;;;25.18;45.74;100473.50;5078512;28;1084;-40
2022/09/30 06:06:55;;;;;;;;;;;;;;;25.28;45.86;100481.34;5071726;28;1095;-41
2022/09/30 06:09:21;;;;;;;;;;;;;;;25.30;45.12;100485.56;5069551;28;1119;-42
2022/09/30 06:11:46;;;;;;;;;;;;;;;25.30;45.01;100488.25;5071571;28;1968;-42
2022/09/30 06:14:12;;;;;;;;;;;;;;;25.36;44.71;100483.19;5064417;28;2082;-42
2022/09/30 06:16:37;;;;;;;;;;;;;;;25.43;44.67;100486.81;5063386;28;1143;-41
2022/09/30 06:19:02;;;;;;;;;;;;;;;25.51;44.33;100497.53;5077665;28;1091;-40
2022/09/30 06:21:28;;;;;;;;;;;;;;;25.55;44.65;100492.66;5074727;28;1203;-41
2022/09/30 06:23:53;;;;;;;;;;;;;;;25.54;44.38;100494.50;5078473;28;1211;-40
2022/09/30 06:26:18;;;;;;;;;;;;;;;25.62;44.19;100506.25;5069811;28;1150;-40
2022/09/30 06:28:44;;;;;;;;;;;;;;;25.64;43.99;100498.84;5072176;28;1087;-41
2022/09/30 06:31:10;;;;;;;;;;;;;;;25.71;43.87;100501.66;5065506;28;1123;-42
2022/09/30 06:33:35;;;;;;;;;;;;;;;25.67;43.58;100510.09;5078013;28;1973;-40
2022/09/30 06:36:03;;;;;;;;;;;;;;;25.78;43.23;100525.00;5077736;28;1134;-40
2022/09/30 06:38:29;;;;;;;;;;;;;;;25.83;43.60;100524.47;5075127;28;1312;-40
2022/09/30 06:40:55;;;;;;;;;;;;;;;25.89;43.11;100529.13;5078322;28;1104;-43
2022/09/30 06:43:20;;;;;;;;;;;;;;;25.99;42.32;100531.56;5077968;28;1816;-40
2022/09/30 06:45:46;;;;;;;;;;;;;;;26.09;42.51;100539.41;5077018;28;1119;-40
2022/09/30 06:48:11;;;;;;;;;;;;;;;26.14;42.24;100542.41;5077724;28;1123;-40
2022/09/30 06:50:38;;;;;;;;;;;;;;;26.15;42.07;100551.34;5069177;28;1099;-41
2022/09/30 06:53:05;;;;;;;;;;;;;;;26.53;41.00;100554.06;5074385;28;1905;-40
2022/09/30 06:55:30;;;;;;;;;;;;;;;26.33;41.95;100558.28;5076913;28;1258;-44
2022/09/30 06:57:55;;;;;;;;;;;;;;;26.44;41.20;100547.09;5077287;28;1294;-41
2022/09/30 07:00:21;;;;;;;;;;;;;;;26.59;40.84;100555.19;5076774;28;1035;-39
2022/09/30 07:02:47;;;;;;;;;;;;;;;26.97;40.53;100562.38;5076872;28;823;-39
2022/09/30 07:05:14;;;;;;;;;;;;;;;26.95;40.34;100572.53;5076601;28;1218;-42
2022/09/30 07:07:39;;;;;;;;;;;;;;;27.02;40.18;100576.19;5076431;28;1083;-41
2022/09/30 07:10:05;;;;;;;;;;;;;;;27.29;39.48;100574.84;5076159;28;1246;-41
2022/09/30 07:12:31;;;;;;;;;;;;;;;27.30;39.24;100576.53;5076493;28;2081;-39
2022/09/30 07:14:57;;;;;;;;;;;;;;;27.19;38.93;100570.59;5076663;28;939;-41
2022/09/30 07:17:22;;;;;;;;;;;;;;;27.43;38.24;100568.59;5076913;28;1134;-42
2022/09/30 07:19:51;;;;;;;;;;;;;;;27.31;37.93;100573.63;5077132;28;1309;-41
2022/09/30 07:22:29;;;;;;;;;;;;;;;27.35;36.93;100577.63;5077505;28;1134;-42
2022/09/30 07:24:55;;;;;;;;;;;;;;;27.57;37.69;100566.03;5077279;28;1213;-40
2022/09/30 07:27:20;;;;;;;;;;;;;;;27.28;36.91;100562.38;5075372;28;873;-41
2022/09/30 07:29:46;;;;;;;;;;;;;;;26.93;36.34;100565.63;5076937;28;1150;-42
2022/09/30 07:32:11;;;;;;;;;;;;;;;26.87;36.02;100561.81;5076813;28;1902;-43
2022/09/30 07:34:37;;;;;;;;;;;;;;;27.49;35.69;100561.59;5077117;28;1087;-42
2022/09/30 07:37:03;;;;;;;;;;;;;;;28.06;35.95;100561.78;5058698;28;1158;-41
2022/09/30 07:39:28;;;;;;;;;;;;;;;28.13;36.32;100563.72;5069571;28;929;-41
2022/09/30 07:41:53;;;;;;;;;;;;;;;28.23;35.33;100559.63;5077327;28;1106;-42
2022/09/30 07:44:19;;;;;;;;;;;;;;;28.35;35.59;100556.44;5077018;28;2685;-42
2022/09/30 07:46:44;;;;;;;;;;;;;;;28.59;35.38;100555.13;5077242;28;1122;-43
2022/09/30 07:49:13;;;;;;;;;;;;;;;28.57;35.68;100559.94;5076208;28;1103;-43
2022/09/30 07:51:39;;;;;;;;;;;;;;;28.70;35.47;100556.47;5071852;28;1906;-43
2022/09/30 07:54:06;;;;;;;;;;;;;;;28.72;35.71;100557.13;5076670;28;1118;-40
2022/09/30 07:56:31;;;;;;;;;;;;;;;28.80;35.61;100553.41;5076711;28;1587;-39
2022/09/30 07:58:58;;;;;;;;;;;;;;;28.70;35.69;100556.47;5076602;28;1060;-40
2022/09/30 08:01:23;;;;;;;;;;;;;;;28.83;35.60;100557.56;5076265;28;1123;-39
2022/09/30 08:03:51;;;;;;;;;;;;;;;28.83;35.70;100563.81;5073645;28;902;-42
2022/09/30 08:06:16;;;;;;;;;;;;;;;28.93;35.56;100570.75;5075999;28;1127;-40
2022/09/30 08:08:43;;;;;;;;;;;;;;;29.09;35.62;100572.34;5076595;28;1111;-40
2022/09/30 08:11:08;;;;;;;;;;;;;;;29.24;35.31;100572.19;5076632;28;1099;-43
2022/09/30 08:13:33;;;;;;;;;;;;;;;29.24;35.13;100560.50;5075592;28;2123;-46
2022/09/30 08:15:59;;;;;;;;;;;;;;;29.26;35.38;100561.16;5073067;28;1278;-41
2022/09/30 08:18:24;;;;;;;;;;;;;;;29.34;35.17;100564.50;5076386;28;1191;-41
2022/09/30 08:20:49;;;;;;;;;;;;;;;29.47;34.91;100562.88;5075892;28;1171;-48
2022/09/30 08:23:15;;;;;;;;;;;;;;;29.48;34.94;100569.97;5075520;28;1206;-41
2022/09/30 08:25:40;;;;;;;;;;;;;;;29.41;35.22;100569.13;5075896;28;1028;-43
2022/09/30 08:28:05;;;;;;;;;;;;;;;29.29;35.38;100577.84;5075289;28;1262;-41
2022/09/30 08:30:33;;;;;;;;;;;;;;;29.60;35.37;100572.13;5075554;28;1072;-41
2022/09/30 08:32:59;;;;;;;;;;;;;;;29.82;35.05;100576.34;5075731;28;1975;-40
2022/09/30 08:35:24;;;;;;;;;;;;;;;29.89;34.92;100572.81;5075364;28;1199;-40
2022/09/30 08:37:50;;;;;;;;;;;;;;;29.80;35.16;100581.13;5075670;28;1266;-41
2022/09/30 08:40:20;;;;;;;;;;;;;;;29.92;34.78;100573.25;5068225;28;870;-40
2022/09/30 08:42:48;;;;;;;;;;;;;;;29.99;34.68;100580.53;5075692;28;1931;-41
2022/09/30 08:45:32;;;;;;;;;;;;;;;30.09;34.12;100588.28;5062502;28;1044;-40
2022/09/30 08:48:07;;;;;;;;;;;;;;;30.08;34.38;100594.75;5075789;28;1146;-39
2022/09/30 08:50:32;;;;;;;;;;;;;;;29.89;34.72;100589.94;5077949;28;1118;-39
2022/09/30 08:52:59;;;;;;;;;;;;;;;30.13;34.31;100597.69;5079737;28;1893;-39
2022/09/30 08:55:25;;;;;;;;;;;;;;;29.97;34.55;100597.03;5079637;28;1222;-40
2022/09/30 08:57:51;;;;;;;;;;;;;;;30.27;33.09;100601.25;5061843;28;1164;-39
2022/09/30 09:00:16;;;;;;;;;;;;;;;30.17;33.59;100605.19;5079881;28;1209;-40
2022/09/30 09:02:47;;;;;;;;;;;;;;;30.19;33.88;100605.81;5043347;28;1024;-38
2022/09/30 09:05:39;;;;;;;;;;;;;;;30.05;34.25;100595.97;5079215;28;1135;-40
2022/09/30 09:08:07;;;;;;;;;;;;;;;29.83;34.69;100607.00;5056438;28;1216;-40
2022/09/30 09:10:45;;;;;;;;;;;;;;;29.98;34.28;100611.44;5046706;28;1154;-40
2022/09/30 09:13:20;;;;;;;;;;;;;;;29.85;34.64;100615.78;5050525;28;2580;-39
2022/09/30 09:15:54;;;;;;;;;;;;;;;30.13;34.07;100620.19;5072061;28;1115;-41
2022/09/30 09:18:22;;;;;;;;;;;;;;;30.03;34.23;100612.47;5079631;28;1110;-40
2022/09/30 09:20:58;;;;;;;;;;;;;;;30.14;34.00;100615.63;5079368;28;1162;-40
2022/09/30 09:23:24;;;;;;;;;;;;;;;30.28;33.35;100609.19;5079221;28;1182;-39
2022/09/30 09:25:51;;;;;;;;;;;;;;;30.30;33.39;100609.81;5079516;28;1185;-39
2022/09/30 09:28:35;;;;;;;;;;;;;;;30.30;33.60;100615.25;5056706;28;973;-40
2022/09/30 09:31:01;;;;;;;;;;;;;;;30.20;33.97;100614.81;5079175;28;1130;-40
2022/09/30 09:33:28;;;;;;;;;;;;;;;30.28;33.84;100620.03;5079437;28;1963;-40
2022/09/30 09:35:56;;;;;;;;;;;;;;;30.34;33.59;100617.53;5061345;28;1161;-41
2022/09/30 09:38:25;;;;;;;;;;;;;;;30.40;33.56;100616.69;5065059;28;1426;-40
2022/09/30 09:40:57;;;;;;;;;;;;;;;30.63;33.09;100610.03;5079042;28;836;-38
2022/09/30 09:43:29;;;;;;;;;;;;;;;30.66;32.97;100612.31;5079249;28;1880;-38
2022/09/30 09:45:57;;;;;;;;;;;;;;;30.73;32.84;100599.53;5079423;28;1123;-38
2022/09/30 09:48:23;;;;;;;;;;;;;;;30.69;33.11;100606.44;5079061;28;1194;-38
2022/09/30 09:50:48;;;;;;;;;;;;;;;30.68;32.90;100604.75;5079245;28;1118;-38
2022/09/30 09:53:22;;;;;;;;;;;;;;;30.81;32.39;100605.84;5076895;28;1956;-40
2022/09/30 09:55:48;;;;;;;;;;;;;;;30.83;32.85;100599.13;5079070;28;1130;-39
2022/09/30 09:58:15;;;;;;;;;;;;;;;30.78;33.05;100610.59;5078766;28;1115;-39
2022/09/30 10:03:19;;;;;;;;;;;;;;;30.94;32.57;100594.09;5059727;28;905;-39
2022/09/30 10:05:46;;;;;;;;;;;;;;;30.88;32.76;100599.34;5065928;28;1112;-41
2022/09/30 10:08:18;;;;;;;;;;;;;;;30.89;32.67;100600.19;5079128;28;1134;-39
2022/09/30 10:10:47;;;;;;;;;;;;;;;30.89;32.47;100598.31;5078550;28;1162;-39
2022/09/30 10:13:29;;;;;;;;;;;;;;;31.07;32.35;100591.34;5078286;28;2144;-38
2022/09/30 10:15:58;;;;;;;;;;;;;;;31.05;32.19;100596.16;5060071;28;1080;-41
2022/09/30 10:18:24;;;;;;;;;;;;;;;30.91;32.46;100600.81;5078146;28;1147;-42
2022/09/30 10:20:51;;;;;;;;;;;;;;;30.76;32.86;100590.97;5077892;28;1219;-41
2022/09/30 10:23:26;;;;;;;;;;;;;;;30.70;32.95;100594.53;5078207;28;1258;-41
2022/09/30 10:25:58;;;;;;;;;;;;;;;30.75;32.82;100585.75;5077101;28;1211;-40
2022/09/30 10:28:25;;;;;;;;;;;;;;;30.71;32.70;100584.53;5077532;28;1207;-41
2022/09/30 10:30:52;;;;;;;;;;;;;;;30.42;33.67;100593.75;5078116;28;1187;-40
2022/09/30 10:33:17;;;;;;;;;;;;;;;30.74;33.98;100590.38;5077371;28;1913;-40
2022/09/30 10:35:49;;;;;;;;;;;;;;;30.76;33.73;100595.59;5077202;28;1222;-39
2022/09/30 10:38:15;;;;;;;;;;;;;;;31.02;33.62;100594.72;5059692;28;1298;-39
2022/09/30 10:40:40;;;;;;;;;;;;;;;30.89;34.03;100590.16;5075749;28;1230;-39
2022/09/30 10:43:13;;;;;;;;;;;;;;;31.03;33.50;100576.53;5056758;28;2399;-38
2022/09/30 10:45:40;;;;;;;;;;;;;;;31.08;33.34;100584.84;5059514;28;1394;-39
2022/09/30 10:48:05;;;;;;;;;;;;;;;31.23;32.81;100578.34;5077288;28;1254;-39
2022/09/30 10:50:31;;;;;;;;;;;;;;;31.36;32.83;100582.88;5077568;28;1250;-40
2022/09/30 10:53:01;;;;;;;;;;;;;;;31.36;33.01;100577.44;5076144;28;1901;-38
2022/09/30 10:55:29;;;;;;;;;;;;;;;31.38;32.32;100583.50;5059858;28;1194;-38
2022/09/30 10:57:55;;;;;;;;;;;;;;;31.37;32.21;100571.78;5077251;28;1235;-39
2022/09/30 11:00:21;;;;;;;;;;;;;;;31.32;31.93;100578.91;5059507;28;1223;-39
2022/09/30 11:02:56;;;;;;;;;;;;;;;31.36;32.67;100582.88;5077369;28;1250;-39
2022/09/30 11:05:21;;;;;;;;;;;;;;;31.27;32.70;100576.84;5074138;28;1229;-39
2022/09/30 11:07:58;;;;;;;;;;;;;;;31.67;31.76;100573.13;5077183;28;1339;-40
2022/09/30 11:10:38;;;;;;;;;;;;;;;31.70;31.95;100569.16;5058870;28;1179;-40
2022/09/30 11:13:04;;;;;;;;;;;;;;;31.99;31.06;100570.44;5074114;28;1963;-40
2022/09/30 11:15:31;;;;;;;;;;;;;;;31.77;31.80;100562.59;5076929;28;1230;-40
2022/09/30 11:17:58;;;;;;;;;;;;;;;31.97;31.68;100577.13;5076764;28;1294;-44
2022/09/30 11:20:31;;;;;;;;;;;;;;;31.72;31.87;100576.03;5059376;28;1182;-48
2022/09/30 11:22:59;;;;;;;;;;;;;;;31.69;31.71;100571.03;5059757;28;936;-44
2022/09/30 11:25:26;;;;;;;;;;;;;;;31.49;32.31;100571.13;5076661;28;1159;-49
2022/09/30 11:28:02;;;;;;;;;;;;;;;31.42;32.41;100578.47;5057600;28;1231;-48
2022/09/30 11:30:36;;;;;;;;;;;;;;;31.42;32.24;100582.03;5074013;28;1139;-51
2022/09/30 11:33:08;;;;;;;;;;;;;;;31.38;32.40;100578.88;5076310;28;1914;-49
2022/09/30 11:35:40;;;;;;;;;;;;;;;31.31;32.40;100578.09;5076595;28;1195;-49
2022/09/30 11:38:12;;;;;;;;;;;;;;;31.29;32.54;100580.19;5076088;28;1254;-49
2022/09/30 11:40:40;;;;;;;;;;;;;;;31.21;32.56;100586.72;5075863;28;1163;-51
2022/09/30 11:43:24;;;;;;;;;;;;;;;31.22;32.31;100588.38;5075339;28;1827;-46
2022/09/30 11:46:02;;;;;;;;;;;;;;;31.22;32.32;100585.66;5076312;28;1179;-49
2022/09/30 11:48:27;;;;;;;;;;;;;;;31.18;32.43;100597.97;5058082;28;1139;-48
2022/09/30 11:50:58;;;;;;;;;;;;;;;31.15;32.19;100590.25;5076529;28;1159;-47
2022/09/30 11:53:34;;;;;;;;;;;;;;;30.89;32.53;100589.31;5074875;28;1949;-47
2022/09/30 11:56:03;;;;;;;;;;;;;;;30.95;32.40;100601.22;5059049;28;1119;-54
2022/09/30 11:58:48;;;;;;;;;;;;;;;30.78;32.83;100598.94;5058920;28;1130;-53
2022/09/30 12:01:23;;;;;;;;;;;;;;;30.58;33.05;100598.94;5075770;28;1721;-50
2022/09/30 12:03:54;;;;;;;;;;;;;;;30.71;32.80;100601.66;5076379;28;1209;-50
2022/09/30 12:06:26;;;;;;;;;;;;;;;30.66;32.92;100598.72;5062067;28;1090;-51
2022/09/30 12:08:58;;;;;;;;;;;;;;;30.68;32.52;100591.19;5076629;28;1127;-49
2022/09/30 12:11:42;;;;;;;;;;;;;;;30.58;33.12;100594.34;5059736;28;1112;-47
2022/09/30 12:14:28;;;;;;;;;;;;;;;30.43;33.18;100600.81;5075981;28;2093;-50
2022/09/30 12:16:55;;;;;;;;;;;;;;;30.70;32.99;100604.59;5069754;28;1106;-51
2022/09/30 12:19:31;;;;;;;;;;;;;;;30.54;32.85;100584.97;5073852;28;1165;-54
2022/09/30 12:22:03;;;;;;;;;;;;;;;30.33;32.96;100580.59;5058475;28;1150;-52
2022/09/30 12:24:34;;;;;;;;;;;;;;;30.14;33.29;100578.47;5074886;28;1126;-52
2022/09/30 12:27:00;;;;;;;;;;;;;;;30.10;33.43;100579.94;5057751;28;1214;-54
2022/09/30 12:32:28;;;;;;;;;;;;;;;30.04;33.62;100588.91;5075625;28;1902;-50
2022/09/30 12:35:00;;;;;;;;;;;;;;;30.14;33.60;100588.50;5075727;28;1397;-54
2022/09/30 12:37:43;;;;;;;;;;;;;;;30.15;33.49;100604.56;5073103;28;1348;-58
2022/09/30 12:40:12;;;;;;;;;;;;;;;30.16;33.62;100599.97;5075126;28;1326;-54
2022/09/30 12:42:37;;;;;;;;;;;;;;;30.02;33.84;100597.25;5070753;28;1792;-56
2022/09/30 12:45:05;;;;;;;;;;;;;;;30.15;33.67;100590.16;5075734;28;1223;-53
2022/09/30 12:47:31;;;;;;;;;;;;;;;30.22;33.65;100592.91;5075270;28;1211;-52
2022/09/30 12:49:56;;;;;;;;;;;;;;;30.29;33.60;100600.00;5074996;28;1135;-47
2022/09/30 12:52:22;;;;;;;;;;;;;;;30.38;33.47;100600.63;5075263;28;1967;-47
2022/09/30 12:55:07;;;;;;;;;;;;;;;30.35;33.31;100600.19;5057066;28;1247;-48
2022/09/30 12:57:35;;;;;;;;;;;;;;;30.07;33.54;100593.91;5057672;28;1124;-48
2022/09/30 13:00:02;;;;;;;;;;;;;;;30.08;33.52;100597.47;5057786;28;1152;-50
2022/09/30 13:02:34;;;;;;;;;;;;;;;30.16;33.84;100599.97;5054447;28;1140;-50